Time;durP1;ratioP1;P1;durP2;ratioP2;P2;SDS_P1;SDS_P2;PMS_P1;PMS_P2;Temp;Humidity;BMP_temperature;BMP_pressure;BME280_temperature;BME280_humidity;BME280_pressure;Samples;Min_cycle;Max_cycle;Signal;HPM_P1;HPM_P2
2022/04/10 00:00:06;;;;;;;3.10;1.50;;;5.30;99.90;;;;;;5073447;28;20201;-89
2022/04/10 00:02:35;;;;;;;1.60;1.33;;;5.30;99.90;;;;;;5073412;28;20241;-90
2022/04/10 00:05:04;;;;;;;1.45;1.35;;;5.30;99.90;;;;;;5072889;28;20248;-89
2022/04/10 00:07:34;;;;;;;2.42;1.63;;;5.30;99.90;;;;;;5073106;28;20224;-90
2022/04/10 00:10:02;;;;;;;1.70;1.60;;;5.30;99.90;;;;;;5072970;28;20292;-90
2022/04/10 00:12:34;;;;;;;3.00;1.50;;;5.30;99.90;;;;;;5072999;28;20248;-90
2022/04/10 00:15:02;;;;;;;2.00;1.10;;;5.20;99.90;;;;;;5073132;28;20259;-89
2022/04/10 00:17:31;;;;;;;1.83;1.60;;;5.20;99.90;;;;;;5073337;28;20307;-90
2022/04/10 00:19:59;;;;;;;1.58;1.48;;;5.20;99.90;;;;;;5073259;28;20208;-90
2022/04/10 00:22:28;;;;;;;1.63;1.52;;;5.20;99.90;;;;;;5072857;28;20245;-90
2022/04/10 00:24:57;;;;;;;1.60;1.50;;;5.10;99.90;;;;;;5072791;28;20316;-89
2022/04/10 00:27:26;;;;;;;1.50;1.40;;;5.10;99.90;;;;;;5073331;28;20286;-90
2022/04/10 00:29:54;;;;;;;2.10;1.30;;;5.10;99.90;;;;;;5073021;28;20205;-90
2022/04/10 00:32:27;;;;;;;2.67;2.40;;;5.00;99.90;;;;;;5072635;28;20255;-90
2022/04/10 00:34:55;;;;;;;1.95;1.67;;;5.00;99.90;;;;;;5072753;28;20212;-90
2022/04/10 00:37:24;;;;;;;1.23;1.23;;;5.00;99.90;;;;;;5072604;28;20204;-90
2022/04/10 00:39:52;;;;;;;3.88;1.40;;;4.90;99.90;;;;;;5073037;28;20272;-90
2022/04/10 00:42:22;;;;;;;2.25;1.70;;;4.90;99.90;;;;;;5072658;28;20225;-89
2022/04/10 00:44:50;;;;;;;1.65;1.55;;;4.90;99.90;;;;;;5072777;28;20320;-89
2022/04/10 00:47:19;;;;;;;1.75;1.48;;;4.90;99.90;;;;;;5072561;28;20231;-90
2022/04/10 00:49:47;;;;;;;1.58;1.48;;;4.90;99.90;;;;;;5071772;28;20296;-89
2022/04/10 00:52:16;;;;;;;1.55;1.45;;;4.90;99.90;;;;;;5072417;28;20228;-90
2022/04/10 00:54:45;;;;;;;1.70;1.60;;;4.90;99.90;;;;;;5072439;28;20228;-89
2022/04/10 00:57:14;;;;;;;1.90;1.65;;;4.90;99.90;;;;;;5072636;28;20228;-90
2022/04/10 00:59:44;;;;;;;1.40;1.30;;;4.90;99.90;;;;;;5072568;28;20201;-89
2022/04/10 01:02:12;;;;;;;2.33;2.13;;;4.80;99.90;;;;;;5072550;28;20225;-89
2022/04/10 01:04:41;;;;;;;2.13;1.90;;;4.90;99.90;;;;;;5072477;28;20225;-91
2022/04/10 01:07:12;;;;;;;1.65;1.40;;;4.80;99.90;;;;;;5072416;28;20244;-90
2022/04/10 01:09:41;;;;;;;2.40;1.75;;;4.80;99.90;;;;;;5072731;28;20235;-89
2022/04/10 01:12:10;;;;;;;7.97;2.00;;;4.80;99.90;;;;;;5072180;28;20229;-90
2022/04/10 01:14:40;;;;;;;1.67;1.55;;;4.70;99.90;;;;;;5075804;28;20224;-90
2022/04/10 01:17:11;;;;;;;1.50;1.40;;;4.80;99.90;;;;;;5076145;28;20212;-90
2022/04/10 01:19:41;;;;;;;2.10;1.85;;;4.70;99.90;;;;;;5072876;28;20230;-89
2022/04/10 01:22:13;;;;;;;2.38;1.77;;;4.70;99.90;;;;;;5072215;28;20229;-89
2022/04/10 01:24:43;;;;;;;1.60;1.50;;;4.70;99.90;;;;;;5075484;28;20229;-90
2022/04/10 01:27:11;;;;;;;1.98;1.80;;;4.70;99.90;;;;;;5081016;28;20236;-88
2022/04/10 01:29:40;;;;;;;2.17;2.03;;;4.70;99.90;;;;;;5080944;28;20239;-90
2022/04/10 01:32:09;;;;;;;1.15;1.15;;;4.70;99.90;;;;;;5075157;28;20228;-90
2022/04/10 01:34:40;;;;;;;1.80;1.65;;;4.60;99.90;;;;;;5079707;28;20203;-90
2022/04/10 01:37:10;;;;;;;6.55;1.98;;;4.60;99.90;;;;;;5081898;28;20230;-90
2022/04/10 01:39:38;;;;;;;1.50;1.40;;;4.60;99.90;;;;;;5082723;28;20212;-89
2022/04/10 01:42:09;;;;;;;3.05;2.40;;;4.60;99.90;;;;;;5072723;28;20244;-89
2022/04/10 01:44:41;;;;;;;2.38;1.77;;;4.60;99.90;;;;;;5072772;28;20250;-89
2022/04/10 01:47:10;;;;;;;1.98;1.80;;;4.60;99.90;;;;;;5072546;28;20229;-90
2022/04/10 01:49:39;;;;;;;2.60;1.83;;;4.60;99.90;;;;;;5072331;28;20232;-90
2022/04/10 01:52:08;;;;;;;1.40;1.30;;;4.50;99.90;;;;;;5075887;28;20217;-90
2022/04/10 01:54:36;;;;;;;1.30;1.27;;;4.60;99.90;;;;;;5078106;28;20225;-90
2022/04/10 01:57:06;;;;;;;2.42;1.40;;;4.60;99.90;;;;;;5075899;28;20262;-90
2022/04/10 01:59:35;;;;;;;1.65;1.35;;;4.50;99.90;;;;;;5079001;28;20201;-89
2022/04/10 02:02:04;;;;;;;1.73;1.63;;;4.50;99.90;;;;;;5074235;28;20252;-90
2022/04/10 02:04:34;;;;;;;2.90;2.03;;;4.50;99.90;;;;;;5075780;28;20248;-90
2022/04/10 02:07:02;;;;;;;2.03;1.75;;;4.50;99.90;;;;;;5075651;28;20209;-90
2022/04/10 02:09:31;;;;;;;3.92;2.78;;;4.50;99.90;;;;;;5076053;28;20205;-89
2022/04/10 02:11:59;;;;;;;2.20;1.85;;;4.50;99.90;;;;;;5075591;28;20233;-90
2022/04/10 02:14:28;;;;;;;2.42;1.80;;;4.50;99.90;;;;;;5075414;28;20228;-89
2022/04/10 02:16:57;;;;;;;1.65;1.55;;;4.50;99.90;;;;;;5075486;28;20221;-90
2022/04/10 02:19:26;;;;;;;1.63;1.52;;;4.50;99.90;;;;;;5075511;28;20209;-90
2022/04/10 02:21:57;;;;;;;1.40;1.30;;;4.50;99.90;;;;;;5075644;28;20205;-89
2022/04/10 02:24:25;;;;;;;2.22;1.42;;;4.50;99.90;;;;;;5075725;28;20211;-89
2022/04/10 02:26:53;;;;;;;2.88;1.90;;;4.40;99.90;;;;;;5075708;28;20231;-91
2022/04/10 02:29:22;;;;;;;2.03;1.75;;;4.40;99.90;;;;;;5076033;28;20224;-89
2022/04/10 02:31:51;;;;;;;2.80;1.30;;;4.40;99.90;;;;;;5075461;28;20354;-89
2022/04/10 02:34:21;;;;;;;1.67;1.55;;;4.40;99.90;;;;;;5075384;28;20224;-90
2022/04/10 02:36:49;;;;;;;1.50;1.40;;;4.40;99.90;;;;;;5074928;28;20213;-90
2022/04/10 02:39:17;;;;;;;1.50;1.40;;;4.30;99.90;;;;;;5075021;28;20228;-90
2022/04/10 02:41:46;;;;;;;4.03;1.73;;;4.30;99.90;;;;;;5074902;28;20316;-90
2022/04/10 02:44:14;;;;;;;1.85;1.75;;;4.30;99.90;;;;;;5075208;28;20259;-90
2022/04/10 02:46:43;;;;;;;1.50;1.40;;;4.30;99.90;;;;;;5077572;28;20221;-90
2022/04/10 02:49:11;;;;;;;1.15;1.15;;;4.30;99.90;;;;;;5077754;28;20231;-90
2022/04/10 02:51:41;;;;;;;1.15;1.15;;;4.30;99.90;;;;;;5076151;28;20201;-89
2022/04/10 02:54:09;;;;;;;2.05;1.92;;;4.30;99.90;;;;;;5074522;28;20208;-89
2022/04/10 02:56:38;;;;;;;1.70;1.58;;;4.20;99.90;;;;;;5074570;28;20197;-89
2022/04/10 02:59:08;;;;;;;2.17;1.83;;;4.30;99.90;;;;;;5074697;28;20266;-90
2022/04/10 03:01:36;;;;;;;1.75;1.65;;;4.20;99.90;;;;;;5074221;28;20231;-90
2022/04/10 03:04:05;;;;;;;1.70;1.60;;;4.20;99.90;;;;;;5074268;28;20205;-90
2022/04/10 03:06:33;;;;;;;2.03;1.85;;;4.20;99.90;;;;;;5074218;28;20279;-90
2022/04/10 03:09:04;;;;;;;1.95;1.77;;;4.20;99.90;;;;;;5074649;28;20275;-89
2022/04/10 03:11:32;;;;;;;2.05;1.95;;;4.20;99.90;;;;;;5074176;28;20201;-90
2022/04/10 03:14:00;;;;;;;2.65;2.45;;;4.20;99.90;;;;;;5073498;28;20198;-89
2022/04/10 03:16:29;;;;;;;2.03;1.73;;;4.20;99.90;;;;;;5073801;28;20201;-89
2022/04/10 03:18:57;;;;;;;2.75;1.95;;;4.20;99.90;;;;;;5074483;28;20208;-90
2022/04/10 03:21:26;;;;;;;2.28;2.08;;;4.20;99.90;;;;;;5074198;28;20197;-90
2022/04/10 03:23:54;;;;;;;2.30;2.10;;;4.10;99.90;;;;;;5074016;28;20221;-90
2022/04/10 03:26:24;;;;;;;1.98;1.88;;;4.20;99.90;;;;;;5074002;28;20212;-89
2022/04/10 03:28:53;;;;;;;4.22;2.10;;;4.10;99.90;;;;;;5074028;28;20239;-90
2022/04/10 03:31:22;;;;;;;2.63;2.38;;;4.00;99.90;;;;;;5073724;28;20240;-90
2022/04/10 03:33:51;;;;;;;5.13;2.35;;;4.10;99.90;;;;;;5073522;28;20228;-90
2022/04/10 03:36:19;;;;;;;2.17;2.08;;;4.00;99.90;;;;;;5073825;28;20205;-89
2022/04/10 03:38:48;;;;;;;2.85;2.65;;;4.00;99.90;;;;;;5073828;28;20239;-89
2022/04/10 03:41:16;;;;;;;2.97;2.72;;;4.00;99.90;;;;;;5073555;28;20221;-90
2022/04/10 03:43:46;;;;;;;2.33;2.05;;;4.00;99.90;;;;;;5073616;28;20233;-90
2022/04/10 03:46:14;;;;;;;2.33;2.13;;;4.00;99.90;;;;;;5073532;28;20296;-89
2022/04/10 03:48:43;;;;;;;2.65;2.13;;;4.00;99.90;;;;;;5073488;28;20197;-90
2022/04/10 03:51:11;;;;;;;1.90;1.80;;;4.00;99.90;;;;;;5073552;28;20242;-90
2022/04/10 03:53:40;;;;;;;2.15;1.90;;;4.00;99.90;;;;;;5073594;28;20252;-90
2022/04/10 03:56:08;;;;;;;2.95;2.53;;;4.00;99.90;;;;;;5073397;28;20220;-89
2022/04/10 03:58:36;;;;;;;4.25;2.20;;;4.00;99.90;;;;;;5073414;28;20220;-89
2022/04/10 04:01:06;;;;;;;3.25;2.78;;;4.00;99.90;;;;;;5073470;28;20224;-89
2022/04/10 04:03:35;;;;;;;2.55;1.83;;;4.00;99.90;;;;;;5073583;28;20217;-89
2022/04/10 04:06:04;;;;;;;2.30;2.10;;;4.00;99.90;;;;;;5072951;28;20213;-89
2022/04/10 04:08:32;;;;;;;1.38;1.27;;;4.00;99.90;;;;;;5073282;28;20243;-89
2022/04/10 04:11:01;;;;;;;3.92;2.55;;;4.00;99.90;;;;;;5072983;28;20201;-90
2022/04/10 04:13:29;;;;;;;3.63;2.70;;;3.90;99.90;;;;;;5072780;28;20248;-89
2022/04/10 04:15:58;;;;;;;4.25;2.55;;;3.90;99.90;;;;;;5073527;28;20205;-89
2022/04/10 04:18:28;;;;;;;2.58;2.38;;;3.90;99.90;;;;;;5074131;28;20208;-89
2022/04/10 04:20:57;;;;;;;3.08;2.60;;;3.90;99.90;;;;;;5075955;28;20280;-89
2022/04/10 04:23:32;;;;;;;2.60;2.40;;;3.80;99.90;;;;;;5074748;28;20228;-89
2022/04/10 04:26:00;;;;;;;2.20;2.10;;;3.80;99.90;;;;;;5072589;28;20293;-89
2022/04/10 04:28:29;;;;;;;2.92;2.38;;;3.80;99.90;;;;;;5072936;28;20204;-89
2022/04/10 04:30:58;;;;;;;1.98;1.88;;;3.70;99.90;;;;;;5072820;28;20209;-89
2022/04/10 04:33:28;;;;;;;2.83;2.63;;;3.70;99.90;;;;;;5072796;28;20236;-89
2022/04/10 04:35:57;;;;;;;6.90;2.78;;;3.70;99.90;;;;;;5072863;28;20292;-89
2022/04/10 04:38:25;;;;;;;3.33;2.47;;;3.70;99.90;;;;;;5072647;28;20209;-89
2022/04/10 04:40:53;;;;;;;3.13;2.50;;;3.70;99.90;;;;;;5072368;28;20204;-89
2022/04/10 04:43:22;;;;;;;6.28;2.85;;;3.70;99.90;;;;;;5072816;28;20227;-89
2022/04/10 04:45:50;;;;;;;2.78;2.58;;;3.70;99.90;;;;;;5072376;28;20258;-89
2022/04/10 04:48:19;;;;;;;3.35;2.75;;;3.70;99.90;;;;;;5072814;28;20227;-90
2022/04/10 04:50:49;;;;;;;3.88;3.08;;;3.70;99.90;;;;;;5072325;28;20197;-89
2022/04/10 04:53:17;;;;;;;2.78;2.58;;;3.70;99.90;;;;;;5072442;28;20225;-89
2022/04/10 04:55:46;;;;;;;2.65;2.45;;;3.70;99.90;;;;;;5072541;28;20228;-89
2022/04/10 04:58:14;;;;;;;2.55;2.35;;;3.70;99.90;;;;;;5072662;28;20209;-89
2022/04/10 05:00:42;;;;;;;1.92;1.83;;;3.80;99.90;;;;;;5072417;28;20260;-89
2022/04/10 05:03:11;;;;;;;3.00;2.80;;;3.80;99.90;;;;;;5072354;28;20301;-89
2022/04/10 05:05:39;;;;;;;2.40;2.20;;;3.80;99.90;;;;;;5072457;28;20227;-88
2022/04/10 05:08:09;;;;;;;2.28;2.08;;;3.80;99.90;;;;;;5071988;28;20308;-90
2022/04/10 05:10:37;;;;;;;2.53;2.33;;;3.80;99.90;;;;;;5072735;28;20204;-89
2022/04/10 05:13:08;;;;;;;2.03;1.92;;;3.80;99.90;;;;;;5072204;28;20289;-89
2022/04/10 05:15:37;;;;;;;2.30;1.88;;;3.90;99.90;;;;;;5072522;28;20227;-90
2022/04/10 05:18:06;;;;;;;2.20;2.08;;;3.90;99.90;;;;;;5072602;28;20209;-90
2022/04/10 05:20:35;;;;;;;2.97;2.05;;;4.00;99.90;;;;;;5074243;28;20216;-89
2022/04/10 05:23:03;;;;;;;1.98;1.60;;;4.10;99.90;;;;;;5082063;28;20240;-89
2022/04/10 05:25:35;;;;;;;1.83;1.65;;;4.10;99.90;;;;;;5081286;28;20213;-89
2022/04/10 05:28:03;;;;;;;2.03;1.83;;;4.20;99.90;;;;;;5078144;28;20225;-89
2022/04/10 05:30:31;;;;;;;1.38;1.30;;;4.30;99.90;;;;;;5076104;28;20240;-89
2022/04/10 05:33:00;;;;;;;1.33;1.23;;;4.30;99.90;;;;;;5081117;28;20255;-90
2022/04/10 05:35:28;;;;;;;1.80;1.70;;;4.40;99.90;;;;;;5080739;28;20209;-89
2022/04/10 05:37:57;;;;;;;2.08;1.88;;;4.50;99.90;;;;;;5078510;28;20259;-89
2022/04/10 05:40:25;;;;;;;1.55;1.45;;;4.50;99.90;;;;;;5077623;28;20205;-89
2022/04/10 05:42:55;;;;;;;4.22;2.55;;;4.50;99.90;;;;;;5079934;28;20324;-90
2022/04/10 05:45:23;;;;;;;1.45;1.35;;;4.60;99.90;;;;;;5076045;28;20353;-89
2022/04/10 05:47:52;;;;;;;1.60;1.50;;;4.70;99.90;;;;;;5076462;28;20217;-89
2022/04/10 05:50:20;;;;;;;2.63;2.05;;;4.80;99.90;;;;;;5080245;28;20201;-89
2022/04/10 05:52:50;;;;;;;1.90;1.73;;;4.80;99.90;;;;;;5082108;28;20304;-90
2022/04/10 05:55:20;;;;;;;1.63;1.52;;;4.90;99.90;;;;;;5086320;28;20400;-89
2022/04/10 05:57:48;;;;;;;2.75;1.83;;;5.00;99.90;;;;;;5076713;28;20220;-89
2022/04/10 06:00:25;;;;;;;1.92;1.70;;;5.10;99.90;;;;;;5075747;28;20197;-89
2022/04/10 06:02:54;;;;;;;2.45;1.63;;;5.10;99.90;;;;;;5075963;28;20316;-89
2022/04/10 06:05:23;;;;;;;1.60;1.48;;;5.10;99.90;;;;;;5075820;28;20236;-90
2022/04/10 06:07:51;;;;;;;2.35;2.15;;;5.10;99.90;;;;;;5075740;28;20244;-89
2022/04/10 06:10:19;;;;;;;1.65;1.55;;;5.20;99.90;;;;;;5074987;28;20291;-89
2022/04/10 06:12:48;;;;;;;1.38;1.27;;;5.20;99.90;;;;;;5075186;28;20255;-89
2022/04/10 06:15:18;;;;;;;2.53;1.75;;;5.20;99.90;;;;;;5075894;28;20229;-89
2022/04/10 06:17:48;;;;;;;2.67;2.00;;;5.30;99.90;;;;;;5075461;28;20307;-89
2022/04/10 06:20:17;;;;;;;1.77;1.67;;;5.30;99.90;;;;;;5075229;28;20251;-89
2022/04/10 06:22:46;;;;;;;2.33;1.48;;;5.40;99.90;;;;;;5075563;28;20225;-89
2022/04/10 06:25:14;;;;;;;4.30;2.22;;;5.50;99.90;;;;;;5075146;28;20333;-90
2022/04/10 06:27:42;;;;;;;1.63;1.52;;;5.50;99.90;;;;;;5075342;28;20311;-89
2022/04/10 06:30:12;;;;;;;2.40;2.20;;;5.60;99.90;;;;;;5075203;28;20201;-90
2022/04/10 06:32:41;;;;;;;1.58;1.48;;;5.60;99.90;;;;;;5075174;28;20225;-89
2022/04/10 06:35:11;;;;;;;2.55;1.90;;;5.70;99.90;;;;;;5075221;28;20262;-89
2022/04/10 06:37:39;;;;;;;3.10;2.03;;;5.70;99.90;;;;;;5075174;28;20205;-89
2022/04/10 06:40:08;;;;;;;2.58;1.65;;;5.70;99.90;;;;;;5074992;28;20236;-89
2022/04/10 06:42:37;;;;;;;2.17;1.98;;;5.80;99.90;;;;;;5074748;28;20252;-88
2022/04/10 06:45:06;;;;;;;1.45;1.35;;;5.90;99.90;;;;;;5075080;28;20231;-88
2022/04/10 06:47:34;;;;;;;1.98;1.88;;;6.00;99.90;;;;;;5074329;28;20278;-89
2022/04/10 06:50:03;;;;;;;4.40;1.90;;;6.00;99.90;;;;;;5075056;28;20221;-88
2022/04/10 06:52:35;;;;;;;2.08;1.75;;;6.00;99.90;;;;;;5074627;28;20216;-89
2022/04/10 06:55:03;;;;;;;1.83;1.73;;;6.00;99.90;;;;;;5074793;28;20270;-89
2022/04/10 06:57:32;;;;;;;2.15;1.95;;;6.10;99.90;;;;;;5074713;28;20243;-88
2022/04/10 07:00:00;;;;;;;2.22;2.00;;;6.10;99.90;;;;;;5074769;28;20217;-88
2022/04/10 07:02:29;;;;;;;2.10;1.88;;;6.10;99.90;;;;;;5074316;28;20236;-89
2022/04/10 07:04:57;;;;;;;1.20;1.20;;;6.10;99.90;;;;;;5074340;28;20238;-89
2022/04/10 07:07:26;;;;;;;4.00;1.88;;;6.20;99.90;;;;;;5073988;28;20220;-89
2022/04/10 07:09:56;;;;;;;1.50;1.40;;;6.20;99.90;;;;;;5074753;28;20209;-89
2022/04/10 07:12:24;;;;;;;3.33;2.58;;;6.40;99.90;;;;;;5074205;28;20247;-89
2022/04/10 07:14:52;;;;;;;1.05;1.05;;;6.50;99.90;;;;;;5074308;28;20236;-89
2022/04/10 07:17:21;;;;;;;1.85;1.75;;;6.60;99.90;;;;;;5074247;28;20259;-89
2022/04/10 07:19:49;;;;;;;2.10;1.85;;;6.60;99.90;;;;;;5074308;28;20205;-89
2022/04/10 07:25:05;;;;;;;1.65;1.55;;;6.70;99.90;;;;;;5077270;28;20223;-88
2022/04/10 07:27:34;;;;;;;1.88;1.75;;;6.70;99.90;;;;;;5076930;28;20312;-88
2022/04/10 07:30:02;;;;;;;2.20;1.50;;;6.90;99.90;;;;;;5073772;28;20227;-89
2022/04/10 07:32:30;;;;;;;1.88;1.77;;;7.00;99.90;;;;;;5073837;28;20236;-88
2022/04/10 07:35:03;;;;;;;1.73;1.63;;;7.10;99.90;;;;;;5074024;28;20225;-90
2022/04/10 07:37:31;;;;;;;1.60;1.50;;;7.20;99.90;;;;;;5074054;28;20335;-89
2022/04/10 07:40:01;;;;;;;2.35;1.90;;;7.20;99.90;;;;;;5073804;28;20217;-89
2022/04/10 07:42:32;;;;;;;4.10;1.38;;;7.30;99.90;;;;;;5073989;28;20220;-89
2022/04/10 07:45:08;;;;;;;1.92;1.55;;;7.40;99.90;;;;;;5074297;28;20228;-89
2022/04/10 07:47:36;;;;;;;2.72;1.60;;;7.60;99.90;;;;;;5073769;28;20201;-89
2022/04/10 07:50:05;;;;;;;2.05;1.17;;;7.70;99.90;;;;;;5077840;28;20201;-88
2022/04/10 07:52:34;;;;;;;1.58;1.30;;;7.70;99.90;;;;;;5073561;28;20225;-88
2022/04/10 07:55:02;;;;;;;1.30;1.20;;;7.70;99.90;;;;;;5074466;28;20277;-88
2022/04/10 07:57:33;;;;;;;1.45;1.35;;;7.80;99.90;;;;;;5075889;28;20263;-89
2022/04/10 08:00:02;;;;;;;1.42;1.08;;;8.00;99.90;;;;;;5076996;28;20197;-90
2022/04/10 08:02:31;;;;;;;2.75;1.52;;;8.20;99.90;;;;;;5072909;28;20290;-90
2022/04/10 08:04:59;;;;;;;3.63;1.58;;;8.30;99.90;;;;;;5073096;28;20212;-90
2022/04/10 08:07:28;;;;;;;1.00;0.93;;;8.60;99.90;;;;;;5073594;28;20212;-90
2022/04/10 08:09:56;;;;;;;1.10;1.00;;;8.80;98.70;;;;;;5073264;28;20213;-89
2022/04/10 08:12:25;;;;;;;2.33;1.52;;;8.80;97.70;;;;;;5072947;28;20217;-90
2022/04/10 08:14:55;;;;;;;4.72;1.15;;;8.60;96.90;;;;;;5073215;28;20243;-90
2022/04/10 08:17:23;;;;;;;0.93;0.90;;;8.70;97.00;;;;;;5072798;28;20221;-89
2022/04/10 08:19:52;;;;;;;0.90;0.90;;;9.00;95.20;;;;;;5073266;28;20228;-89
2022/04/10 08:22:24;;;;;;;24.13;1.42;;;9.50;94.80;;;;;;5072620;28;20271;-88
2022/04/10 08:24:53;;;;;;;1.17;1.08;;;10.30;92.40;;;;;;5072874;28;20236;-88
2022/04/10 08:27:22;;;;;;;1.30;1.20;;;10.90;91.20;;;;;;5072909;28;20205;-89
2022/04/10 08:29:56;;;;;;;3.30;1.55;;;11.40;89.70;;;;;;5072829;28;20235;-89
2022/04/10 08:32:24;;;;;;;1.52;1.20;;;12.20;84.80;;;;;;5072917;28;20225;-88
2022/04/10 08:34:53;;;;;;;2.00;1.15;;;11.70;82.50;;;;;;5072939;28;20224;-88
2022/04/10 08:37:22;;;;;;;1.20;1.10;;;12.00;80.80;;;;;;5072945;28;20197;-88
2022/04/10 08:39:50;;;;;;;1.40;1.30;;;12.50;78.90;;;;;;5072348;28;20267;-89
2022/04/10 08:42:18;;;;;;;2.22;1.30;;;13.40;79.10;;;;;;5072090;28;20228;-88
2022/04/10 08:44:48;;;;;;;0.98;0.98;;;13.90;75.60;;;;;;5072476;28;20217;-89
2022/04/10 08:47:20;;;;;;;4.65;1.75;;;13.60;74.90;;;;;;5072462;28;20220;-89
2022/04/10 08:49:50;;;;;;;5.43;1.85;;;12.60;77.20;;;;;;5072416;28;20221;-88
2022/04/10 08:52:21;;;;;;;1.38;1.27;;;12.00;77.70;;;;;;5071994;28;20240;-89
2022/04/10 08:54:50;;;;;;;1.20;1.10;;;10.90;77.70;;;;;;5073010;28;20212;-89
2022/04/10 08:57:19;;;;;;;1.83;1.73;;;10.50;81.10;;;;;;5073646;28;20231;-89
2022/04/10 08:59:47;;;;;;;1.75;1.30;;;10.40;83.80;;;;;;5074606;28;20201;-88
2022/04/10 09:02:16;;;;;;;1.35;1.23;;;10.70;81.00;;;;;;5074343;28;20221;-89
2022/04/10 09:04:46;;;;;;;1.42;1.33;;;11.50;79.80;;;;;;5072416;28;20201;-88
2022/04/10 09:07:15;;;;;;;1.30;1.20;;;12.40;81.00;;;;;;5072810;28;20201;-88
2022/04/10 09:09:52;;;;;;;1.48;1.35;;;13.80;79.80;;;;;;5071919;28;20249;-88
2022/04/10 09:12:20;;;;;;;1.40;1.30;;;14.70;69.60;;;;;;5074991;28;20258;-88
2022/04/10 09:14:50;;;;;;;1.35;1.25;;;13.60;70.30;;;;;;5076115;28;20287;-88
2022/04/10 09:17:20;;;;;;;1.23;1.08;;;12.70;72.90;;;;;;5076323;28;20296;-89
2022/04/10 09:19:51;;;;;;;1.20;1.10;;;11.30;77.10;;;;;;5081535;28;20200;-87
2022/04/10 09:22:27;;;;;;;2.38;1.40;;;10.40;80.30;;;;;;5084313;28;20288;-88
2022/04/10 09:25:05;;;;;;;4.05;1.48;;;10.10;83.30;;;;;;5080291;28;20204;-88
2022/04/10 09:27:35;;;;;;;1.67;1.58;;;10.90;87.70;;;;;;5076615;28;20296;-88
2022/04/10 09:30:04;;;;;;;5.63;1.63;;;12.20;80.50;;;;;;5081302;28;20225;-88
2022/04/10 09:32:44;;;;;;;2.22;1.60;;;13.60;85.00;;;;;;5081627;28;20244;-89
2022/04/10 09:35:15;;;;;;;2.88;2.00;;;14.80;78.10;;;;;;5079399;28;20231;-89
2022/04/10 09:37:46;;;;;;;2.83;2.17;;;15.20;73.40;;;;;;5076335;28;20208;-88
2022/04/10 09:40:28;;;;;;;2.22;1.60;;;14.20;71.20;;;;;;5076004;28;20205;-88
2022/04/10 09:43:01;;;;;;;1.58;1.48;;;13.60;72.20;;;;;;5076008;28;20286;-88
2022/04/10 09:45:35;;;;;;;2.60;1.67;;;12.30;72.50;;;;;;5076939;28;20208;-88
2022/04/10 09:48:21;;;;;;;1.65;1.55;;;11.60;76.90;;;;;;5075794;28;20255;-89
2022/04/10 09:50:53;;;;;;;1.50;1.40;;;10.90;77.80;;;;;;5075694;28;20224;-89
2022/04/10 09:53:22;;;;;;;1.83;1.42;;;10.70;76.80;;;;;;5075758;28;20240;-90
2022/04/10 09:55:55;;;;;;;1.83;1.42;;;11.20;76.50;;;;;;5075615;28;20295;-88
2022/04/10 09:58:25;;;;;;;1.27;1.23;;;12.50;73.10;;;;;;5075701;28;20201;-88
2022/04/10 10:00:55;;;;;;;1.50;1.38;;;13.60;69.80;;;;;;5075911;28;20205;-89
2022/04/10 10:03:26;;;;;;;1.40;1.30;;;14.70;66.80;;;;;;5075898;28;20217;-89
2022/04/10 10:05:56;;;;;;;1.25;1.20;;;15.50;64.40;;;;;;5076269;28;20251;-88
2022/04/10 10:08:27;;;;;;;1.88;1.77;;;16.10;60.30;;;;;;5075315;28;20246;-89
2022/04/10 10:10:56;;;;;;;1.85;1.75;;;16.50;61.30;;;;;;5075322;28;20217;-88
2022/04/10 10:13:27;;;;;;;1.50;1.40;;;15.40;56.40;;;;;;5075331;28;20225;-88
2022/04/10 10:15:56;;;;;;;2.05;1.95;;;14.30;58.30;;;;;;5075597;28;20209;-88
2022/04/10 10:18:26;;;;;;;2.42;2.22;;;13.50;66.60;;;;;;5075076;28;20213;-89
2022/04/10 10:20:56;;;;;;;2.30;2.13;;;12.30;74.80;;;;;;5074911;28;20201;-89
2022/04/10 10:23:26;;;;;;;2.22;2.03;;;11.20;79.00;;;;;;5074924;28;20288;-88
2022/04/10 10:26:04;;;;;;;3.13;2.80;;;10.60;82.40;;;;;;5075440;28;20197;-88
2022/04/10 10:29:05;;;;;;;5.97;2.17;;;10.50;84.00;;;;;;5075270;28;20240;-88
2022/04/10 10:31:48;;;;;;;2.05;1.88;;;10.80;84.80;;;;;;5075057;28;20196;-89
2022/04/10 10:34:17;;;;;;;1.83;1.58;;;11.30;84.00;;;;;;5076074;28;20239;-88
2022/04/10 10:36:47;;;;;;;2.25;2.05;;;11.80;77.70;;;;;;5075544;28;20288;-88
2022/04/10 10:39:15;;;;;;;1.75;1.65;;;12.00;78.10;;;;;;5075335;28;20243;-89
2022/04/10 10:41:44;;;;;;;3.42;1.65;;;11.70;71.20;;;;;;5075035;28;20205;-89
2022/04/10 10:44:18;;;;;;;2.20;2.08;;;11.40;69.70;;;;;;5074941;28;20293;-89
2022/04/10 10:46:58;;;;;;;2.10;1.90;;;11.10;71.10;;;;;;5075204;28;20234;-88
2022/04/10 10:49:29;;;;;;;1.80;1.70;;;10.80;71.50;;;;;;5074165;28;20217;-89
2022/04/10 10:52:10;;;;;;;1.58;1.40;;;10.70;72.60;;;;;;5074384;28;20231;-90
2022/04/10 10:54:45;;;;;;;2.28;2.08;;;10.30;72.30;;;;;;5074855;28;20200;-89
2022/04/10 10:57:39;;;;;;;1.70;1.60;;;9.90;74.70;;;;;;5074642;28;20201;-81
2022/04/10 11:00:20;;;;;;;1.15;1.15;;;9.90;79.50;;;;;;5074311;28;20254;-81
2022/04/10 11:02:51;;;;;;;2.20;2.00;;;10.00;79.20;;;;;;5074639;28;20232;-81
2022/04/10 11:05:30;;;;;;;2.72;2.05;;;10.00;82.70;;;;;;5074417;28;20209;-81
2022/04/10 11:08:03;;;;;;;4.80;2.47;;;10.50;83.50;;;;;;5074406;28;20205;-81
2022/04/10 11:10:32;;;;;;;2.42;2.22;;;11.40;78.80;;;;;;5074053;28;20224;-81
2022/04/10 11:13:03;;;;;;;1.63;1.52;;;12.00;76.10;;;;;;5074135;28;20265;-81
2022/04/10 11:15:33;;;;;;;7.07;2.40;;;12.60;76.60;;;;;;5074630;28;20209;-81
2022/04/10 11:18:37;;;;;;;2.05;1.85;;;12.70;76.60;;;;;;5074181;28;20217;-81
2022/04/10 11:21:14;;;;;;;2.17;1.92;;;13.30;72.90;;;;;;5074250;28;20246;-81
2022/04/10 11:23:57;;;;;;;1.45;1.35;;;12.80;70.80;;;;;;5074046;28;20233;-81
2022/04/10 11:26:36;;;;;;;1.42;1.33;;;12.50;69.50;;;;;;5074017;28;20204;-81
2022/04/10 11:29:06;;;;;;;1.50;1.40;;;12.50;69.90;;;;;;5073847;28;20209;-81
2022/04/10 11:31:38;;;;;;;1.38;1.30;;;11.90;70.20;;;;;;5073625;28;20239;-81
2022/04/10 11:34:11;;;;;;;1.30;1.30;;;10.70;72.90;;;;;;5073452;28;20211;-81
2022/04/10 11:36:52;;;;;;;2.00;1.90;;;10.40;75.80;;;;;;5073648;28;20205;-81
2022/04/10 11:39:28;;;;;;;4.00;2.67;;;10.60;82.60;;;;;;5073407;28;20205;-81
2022/04/10 11:42:01;;;;;;;2.55;2.35;;;10.60;88.80;;;;;;5073495;28;20311;-81
2022/04/10 11:44:30;;;;;;;2.13;1.92;;;10.50;89.70;;;;;;5073689;28;20201;-81
2022/04/10 11:47:01;;;;;;;1.80;1.70;;;10.70;89.90;;;;;;5073823;28;20249;-81
2022/04/10 11:49:29;;;;;;;3.53;3.17;;;11.20;90.40;;;;;;5073347;28;20202;-81
2022/04/10 11:51:59;;;;;;;2.22;2.05;;;11.50;87.00;;;;;;5073277;28;20240;-81
2022/04/10 11:54:33;;;;;;;2.22;2.05;;;11.80;88.20;;;;;;5073579;28;20299;-81
2022/04/10 11:57:03;;;;;;;1.63;1.52;;;12.10;85.60;;;;;;5073322;28;20220;-82
2022/04/10 11:59:35;;;;;;;1.52;1.42;;;11.90;82.30;;;;;;5073391;28;20208;-82
2022/04/10 12:02:04;;;;;;;1.70;1.60;;;12.00;84.40;;;;;;5073100;28;20228;-81
2022/04/10 12:04:36;;;;;;;2.53;1.80;;;11.90;83.50;;;;;;5073185;28;20281;-80
2022/04/10 12:07:13;;;;;;;1.80;1.70;;;12.20;83.40;;;;;;5072908;28;20200;-81
2022/04/10 12:09:44;;;;;;;1.80;1.70;;;12.00;84.00;;;;;;5073113;28;20204;-81
2022/04/10 12:12:14;;;;;;;1.38;1.27;;;12.10;84.10;;;;;;5073023;28;20229;-81
2022/04/10 12:14:42;;;;;;;1.98;1.50;;;12.20;80.80;;;;;;5072995;28;20262;-81
2022/04/10 12:17:12;;;;;;;1.35;1.25;;;11.90;75.50;;;;;;5072860;28;20209;-81
2022/04/10 12:19:40;;;;;;;1.33;1.10;;;11.50;76.60;;;;;;5072921;28;20277;-81
2022/04/10 12:22:12;;;;;;;1.65;1.55;;;11.20;79.40;;;;;;5073004;28;20251;-81
2022/04/10 12:24:45;;;;;;;1.30;1.30;;;11.50;80.50;;;;;;5073418;28;20205;-81
2022/04/10 12:27:14;;;;;;;2.63;1.83;;;11.40;77.70;;;;;;5073206;28;20262;-80
2022/04/10 12:29:43;;;;;;;1.73;1.27;;;11.10;81.60;;;;;;5072787;28;20204;-81
2022/04/10 12:32:12;;;;;;;2.08;1.85;;;10.80;89.50;;;;;;5072289;28;20251;-81
2022/04/10 12:34:42;;;;;;;1.92;1.83;;;9.80;93.70;;;;;;5072639;28;20240;-81
2022/04/10 12:37:12;;;;;;;1.85;1.70;;;9.10;99.90;;;;;;5072621;28;20305;-83
2022/04/10 12:39:46;;;;;;;2.08;1.95;;;8.20;99.90;;;;;;5072792;28;20206;-84
2022/04/10 12:42:24;;;;;;;2.72;2.38;;;7.20;99.90;;;;;;5072175;28;20247;-84
2022/04/10 12:45:18;;;;;;;2.03;1.90;;;6.90;99.90;;;;;;5072331;28;20208;-83
2022/04/10 12:47:52;;;;;;;6.13;3.13;;;6.50;99.90;;;;;;5072077;28;20216;-83
2022/04/10 12:50:25;;;;;;;3.20;3.00;;;6.50;99.90;;;;;;5072468;28;20228;-83
2022/04/10 12:52:55;;;;;;;2.88;2.60;;;6.50;99.90;;;;;;5072730;28;20228;-83
2022/04/10 12:55:26;;;;;;;3.00;2.70;;;6.70;99.90;;;;;;5072407;28;20196;-83
2022/04/10 12:57:57;;;;;;;3.15;2.88;;;6.90;99.90;;;;;;5072400;28;20266;-83
2022/04/10 13:00:38;;;;;;;3.03;2.83;;;7.10;99.90;;;;;;5072427;28;20212;-83
2022/04/10 13:03:20;;;;;;;2.92;2.72;;;7.30;99.90;;;;;;5072279;28;20252;-82
2022/04/10 13:05:57;;;;;;;2.60;2.40;;;7.60;99.90;;;;;;5072584;28;20258;-82
2022/04/10 13:08:27;;;;;;;2.25;2.03;;;8.10;99.90;;;;;;5072546;28;20196;-82
2022/04/10 13:11:00;;;;;;;1.92;1.77;;;8.50;99.90;;;;;;5072241;28;20276;-82